Time;durP1;ratioP1;P1;durP2;ratioP2;P2;SDS_P1;SDS_P2;PMS_P1;PMS_P2;Temp;Humidity;BMP_temperature;BMP_pressure;BME280_temperature;BME280_humidity;BME280_pressure;Samples;Min_cycle;Max_cycle;Signal;HPM_P1;HPM_P2
2023/05/16 00:01:34;;;;;;;6.10;4.22;;;;;;;;;;5049928;28;20097;-73
2023/05/16 00:04:20;;;;;;;10.02;6.15;;;;;;;;;;5048497;28;20040;-67
2023/05/16 00:07:05;;;;;;;8.18;5.72;;;;;;;;;;5049642;28;20028;-73
2023/05/16 00:09:50;;;;;;;8.77;5.55;;;;;;;;;;5071061;28;20122;-74
2023/05/16 00:12:36;;;;;;;11.15;6.35;;;;;;;;;;5060597;28;20032;-75
2023/05/16 00:15:24;;;;;;;7.10;5.07;;;;;;;;;;5056108;28;20024;-74
2023/05/16 00:18:13;;;;;;;8.50;4.85;;;;;;;;;;5056209;28;20044;-73
2023/05/16 00:20:58;;;;;;;8.43;5.63;;;;;;;;;;5057689;28;20033;-79
2023/05/16 00:23:44;;;;;;;7.93;4.97;;;;;;;;;;5057538;28;20028;-85
2023/05/16 00:26:29;;;;;;;7.95;5.40;;;;;;;;;;5056804;28;20039;-83
2023/05/16 00:29:14;;;;;;;8.57;5.57;;;;;;;;;;5058843;28;20021;-83
2023/05/16 00:31:59;;;;;;;8.27;4.93;;;;;;;;;;5058583;28;20036;-82
2023/05/16 00:34:45;;;;;;;7.35;4.90;;;;;;;;;;5053172;28;20387;-81
2023/05/16 00:37:30;;;;;;;8.57;5.45;;;;;;;;;;5056203;28;20098;-82
2023/05/16 00:40:15;;;;;;;9.05;6.20;;;;;;;;;;5057494;28;20063;-67
2023/05/16 00:43:00;;;;;;;7.75;5.72;;;;;;;;;;5055067;28;20031;-71
2023/05/16 00:45:46;;;;;;;8.63;5.15;;;;;;;;;;5056102;28;20033;-73
2023/05/16 00:48:31;;;;;;;8.73;5.68;;;;;;;;;;5042273;28;20029;-74
2023/05/16 00:51:16;;;;;;;9.02;5.13;;;;;;;;;;5051332;28;20025;-72
2023/05/16 00:54:02;;;;;;;10.48;5.28;;;;;;;;;;5057814;28;20074;-71
2023/05/16 00:56:47;;;;;;;10.63;6.18;;;;;;;;;;5055689;28;20072;-69
2023/05/16 00:59:33;;;;;;;11.07;5.78;;;;;;;;;;5055542;28;20071;-83
2023/05/16 01:02:18;;;;;;;10.18;6.03;;;;;;;;;;5057700;28;20098;-74
2023/05/16 01:05:04;;;;;;;7.93;5.22;;;;;;;;;;5054848;28;20032;-78
2023/05/16 01:07:49;;;;;;;12.10;7.65;;;;;;;;;;5055122;28;20035;-75
2023/05/16 01:10:40;;;;;;;9.95;6.93;;;;;;;;;;5066527;28;20028;-76
2023/05/16 01:13:44;;;;;;;10.50;6.82;;;;;;;;;;5044386;28;20364;-76
2023/05/16 01:16:32;;;;;;;12.15;7.32;;;;;;;;;;5041936;28;20040;-80
2023/05/16 01:19:36;;;;;;;11.65;6.50;;;;;;;;;;5056533;28;20379;-80
2023/05/16 01:22:31;;;;;;;13.63;8.77;;;;;;;;;;5056493;28;20024;-81
2023/05/16 01:25:16;;;;;;;12.80;8.38;;;;;;;;;;5038132;28;20391;-82
2023/05/16 01:28:02;;;;;;;14.10;9.88;;;;;;;;;;5048606;28;20056;-80
2023/05/16 01:30:49;;;;;;;17.25;11.63;;;;;;;;;;5044013;28;20101;-82
2023/05/16 01:33:35;;;;;;;14.05;10.38;;;;;;;;;;5054782;28;20112;-72
2023/05/16 01:36:33;;;;;;;18.77;13.77;;;;;;;;;;5031762;28;20051;-80
2023/05/16 01:39:26;;;;;;;21.77;15.48;;;;;;;;;;5050547;28;20046;-68
2023/05/16 01:42:14;;;;;;;20.80;13.93;;;;;;;;;;5055462;28;20028;-67
2023/05/16 01:45:17;;;;;;;27.50;17.70;;;;;;;;;;5055265;28;20107;-70
2023/05/16 01:48:04;;;;;;;22.92;17.42;;;;;;;;;;5059808;28;20066;-69
2023/05/16 01:50:52;;;;;;;25.00;18.80;;;;;;;;;;5050693;28;20102;-68
2023/05/16 01:53:38;;;;;;;23.27;17.38;;;;;;;;;;5049353;28;20025;-76
2023/05/16 01:56:24;;;;;;;23.80;17.27;;;;;;;;;;5066364;28;20055;-76
2023/05/16 01:59:10;;;;;;;26.83;20.17;;;;;;;;;;5071165;28;20035;-75
2023/05/16 02:01:56;;;;;;;27.08;18.85;;;;;;;;;;5047164;28;20075;-76
2023/05/16 02:04:41;;;;;;;27.90;20.25;;;;;;;;;;5069538;28;20099;-75
2023/05/16 02:07:26;;;;;;;31.98;20.83;;;;;;;;;;5050772;28;20025;-76
2023/05/16 02:10:12;;;;;;;27.10;20.10;;;;;;;;;;5050032;28;20036;-66
2023/05/16 02:12:57;;;;;;;29.65;21.05;;;;;;;;;;5055885;28;20082;-73
2023/05/16 02:15:43;;;;;;;29.75;18.98;;;;;;;;;;5054134;28;20043;-69
2023/05/16 02:18:28;;;;;;;41.00;20.30;;;;;;;;;;5059724;28;20483;-68
2023/05/16 02:21:13;;;;;;;26.23;19.15;;;;;;;;;;5061460;28;20016;-68
2023/05/16 02:23:58;;;;;;;27.90;19.88;;;;;;;;;;5043959;28;20082;-69
2023/05/16 02:26:44;;;;;;;25.92;18.10;;;;;;;;;;5061386;28;20028;-67
2023/05/16 02:29:29;;;;;;;26.08;19.33;;;;;;;;;;5050622;28;20043;-85
2023/05/16 02:32:14;;;;;;;26.02;17.65;;;;;;;;;;5060932;28;20027;-71
2023/05/16 02:34:59;;;;;;;26.00;18.30;;;;;;;;;;5070230;28;20478;-70
2023/05/16 02:37:45;;;;;;;27.48;19.88;;;;;;;;;;5047601;28;20054;-70
2023/05/16 02:40:30;;;;;;;25.83;18.63;;;;;;;;;;5065232;28;20075;-71
2023/05/16 02:43:15;;;;;;;26.52;19.15;;;;;;;;;;5067207;28;20097;-72
2023/05/16 02:46:03;;;;;;;28.05;18.83;;;;;;;;;;5069082;28;20028;-70
2023/05/16 02:48:49;;;;;;;27.17;18.98;;;;;;;;;;5056361;28;20059;-71
2023/05/16 02:51:34;;;;;;;25.35;18.33;;;;;;;;;;5064061;28;20032;-76
2023/05/16 02:54:19;;;;;;;26.92;18.83;;;;;;;;;;5063567;28;20031;-75
2023/05/16 02:57:05;;;;;;;29.08;19.52;;;;;;;;;;5061921;28;20393;-75
2023/05/16 02:59:50;;;;;;;30.80;20.77;;;;;;;;;;5053162;28;20044;-76
2023/05/16 03:02:35;;;;;;;25.25;18.98;;;;;;;;;;5068632;28;20023;-76
2023/05/16 03:05:21;;;;;;;29.27;20.30;;;;;;;;;;5062195;28;20028;-72
2023/05/16 03:08:06;;;;;;;28.42;20.48;;;;;;;;;;5043431;28;20040;-68
2023/05/16 03:10:51;;;;;;;30.48;21.70;;;;;;;;;;5051385;28;20403;-66
2023/05/16 03:13:36;;;;;;;29.52;21.67;;;;;;;;;;5042011;28;20061;-68
2023/05/16 03:16:22;;;;;;;29.27;21.33;;;;;;;;;;5056799;28;20044;-68
2023/05/16 03:19:07;;;;;;;28.80;20.98;;;;;;;;;;5075004;28;20352;-67
2023/05/16 03:21:52;;;;;;;29.90;20.65;;;;;;;;;;5069976;28;20043;-67
2023/05/16 03:24:37;;;;;;;31.70;22.35;;;;;;;;;;5066833;28;20016;-79
2023/05/16 03:27:23;;;;;;;34.15;23.65;;;;;;;;;;5063954;28;20046;-73
2023/05/16 03:30:08;;;;;;;33.30;21.50;;;;;;;;;;5074584;28;20028;-72
2023/05/16 03:32:54;;;;;;;29.60;20.85;;;;;;;;;;5063581;28;20056;-72
2023/05/16 03:35:39;;;;;;;32.03;21.48;;;;;;;;;;5049746;28;20038;-72
2023/05/16 03:38:25;;;;;;;39.03;26.10;;;;;;;;;;5067577;28;20433;-71
2023/05/16 03:41:10;;;;;;;36.92;24.73;;;;;;;;;;5048394;28;20133;-71
2023/05/16 03:43:55;;;;;;;37.90;26.38;;;;;;;;;;5053413;28;20054;-71
2023/05/16 03:46:40;;;;;;;34.78;23.55;;;;;;;;;;5071057;28;20064;-72
2023/05/16 03:49:29;;;;;;;39.80;24.38;;;;;;;;;;5073372;28;20059;-73
2023/05/16 03:52:14;;;;;;;38.20;24.20;;;;;;;;;;5051946;28;20165;-73
2023/05/16 03:55:00;;;;;;;41.13;26.02;;;;;;;;;;5057052;28;20038;-74
2023/05/16 03:57:46;;;;;;;36.95;24.77;;;;;;;;;;5070509;28;20040;-72
2023/05/16 04:00:33;;;;;;;38.85;27.52;;;;;;;;;;5070128;28;20494;-73
2023/05/16 04:03:18;;;;;;;39.17;27.05;;;;;;;;;;5056378;28;20492;-81
2023/05/16 04:06:04;;;;;;;34.78;24.00;;;;;;;;;;5051397;28;20483;-71
2023/05/16 04:08:50;;;;;;;36.22;24.15;;;;;;;;;;5058799;28;20028;-70
2023/05/16 04:11:35;;;;;;;38.10;25.58;;;;;;;;;;5060703;28;20457;-71
2023/05/16 04:14:20;;;;;;;40.63;23.42;;;;;;;;;;5051625;28;20025;-70
2023/05/16 04:17:06;;;;;;;39.38;26.75;;;;;;;;;;5054447;28;20396;-71
2023/05/16 04:19:51;;;;;;;38.17;25.98;;;;;;;;;;5069471;28;20031;-82
2023/05/16 04:22:36;;;;;;;39.35;27.95;;;;;;;;;;5047476;28;20035;-72
2023/05/16 04:25:21;;;;;;;40.03;27.52;;;;;;;;;;5041818;28;20035;-71
2023/05/16 04:28:06;;;;;;;39.72;25.10;;;;;;;;;;5052075;28;20026;-73
2023/05/16 04:30:52;;;;;;;44.42;28.83;;;;;;;;;;5061381;28;20031;-72
2023/05/16 04:33:37;;;;;;;39.25;26.92;;;;;;;;;;5058570;28;20467;-73
2023/05/16 04:36:22;;;;;;;34.80;24.10;;;;;;;;;;5055021;28;20473;-73
2023/05/16 04:39:08;;;;;;;43.50;30.00;;;;;;;;;;5038088;28;20173;-68
2023/05/16 04:41:53;;;;;;;37.17;23.65;;;;;;;;;;5061611;28;20032;-75
2023/05/16 04:44:38;;;;;;;35.40;26.60;;;;;;;;;;5065011;28;20051;-74
2023/05/16 04:47:23;;;;;;;41.03;28.88;;;;;;;;;;5059934;28;20032;-73
2023/05/16 04:50:09;;;;;;;44.15;29.63;;;;;;;;;;5058878;28;20033;-74
2023/05/16 04:52:54;;;;;;;39.28;25.63;;;;;;;;;;5055227;28;20163;-74
2023/05/16 04:55:39;;;;;;;43.95;27.95;;;;;;;;;;5051678;28;20068;-73
2023/05/16 04:58:25;;;;;;;39.97;28.60;;;;;;;;;;5070311;28;20039;-75
2023/05/16 05:01:10;;;;;;;36.03;24.23;;;;;;;;;;5049908;28;20016;-66
2023/05/16 05:03:55;;;;;;;41.03;25.85;;;;;;;;;;5055368;28;20189;-68
2023/05/16 05:06:41;;;;;;;37.05;25.92;;;;;;;;;;5055633;28;20050;-66
2023/05/16 05:09:26;;;;;;;44.60;29.70;;;;;;;;;;5055663;28;20039;-67
2023/05/16 05:12:11;;;;;;;41.55;27.15;;;;;;;;;;5052198;28;20031;-66
2023/05/16 05:14:56;;;;;;;41.78;25.15;;;;;;;;;;5055832;28;20502;-68
2023/05/16 05:17:42;;;;;;;39.58;26.90;;;;;;;;;;5053489;28;20085;-69
2023/05/16 05:20:27;;;;;;;43.67;30.85;;;;;;;;;;5063613;28;20060;-67
2023/05/16 05:23:12;;;;;;;38.33;26.00;;;;;;;;;;5045862;28;20425;-68
2023/05/16 05:25:57;;;;;;;44.03;28.35;;;;;;;;;;5057612;28;20025;-70
2023/05/16 05:28:43;;;;;;;43.40;28.92;;;;;;;;;;5061143;28;20032;-69
2023/05/16 05:31:28;;;;;;;38.97;26.05;;;;;;;;;;5077029;28;20024;-71
2023/05/16 05:34:13;;;;;;;42.33;28.38;;;;;;;;;;5067379;28;20024;-73
2023/05/16 05:36:59;;;;;;;44.92;30.05;;;;;;;;;;5057073;28;20479;-78
2023/05/16 05:39:44;;;;;;;47.40;31.70;;;;;;;;;;5047750;28;20045;-82
2023/05/16 05:42:30;;;;;;;39.53;27.90;;;;;;;;;;5053412;28;20040;-79
2023/05/16 05:45:15;;;;;;;39.42;28.40;;;;;;;;;;5053793;28;20027;-80
2023/05/16 05:48:01;;;;;;;37.63;25.30;;;;;;;;;;5069999;28;20035;-81
2023/05/16 05:50:46;;;;;;;37.88;25.60;;;;;;;;;;5050455;28;20028;-80
2023/05/16 05:53:31;;;;;;;40.25;27.98;;;;;;;;;;5053360;28;20475;-74
2023/05/16 05:56:17;;;;;;;40.13;26.70;;;;;;;;;;5054956;28;20058;-69
2023/05/16 05:59:02;;;;;;;37.70;25.73;;;;;;;;;;5051396;28;20032;-68
2023/05/16 06:01:51;;;;;;;49.03;31.67;;;;;;;;;;5053587;28;20039;-69
2023/05/16 06:04:37;;;;;;;38.67;27.45;;;;;;;;;;5055288;28;20093;-68
2023/05/16 06:07:22;;;;;;;39.05;29.35;;;;;;;;;;5041837;28;20464;-70
2023/05/16 06:10:08;;;;;;;39.25;25.70;;;;;;;;;;5032690;28;20035;-69
2023/05/16 06:12:53;;;;;;;39.70;28.40;;;;;;;;;;5053308;28;20033;-67
2023/05/16 06:15:38;;;;;;;41.80;29.17;;;;;;;;;;5055963;28;20032;-67
2023/05/16 06:18:24;;;;;;;39.58;26.65;;;;;;;;;;5054945;28;20089;-67
2023/05/16 06:21:09;;;;;;;38.00;25.17;;;;;;;;;;5052735;28;20028;-67
2023/05/16 06:23:54;;;;;;;33.05;24.83;;;;;;;;;;5052121;28;20073;-67
2023/05/16 06:26:39;;;;;;;40.80;27.33;;;;;;;;;;5052806;28;20537;-67
2023/05/16 06:29:24;;;;;;;33.30;22.83;;;;;;;;;;5047770;28;20111;-71
2023/05/16 06:32:10;;;;;;;36.40;24.35;;;;;;;;;;5053679;28;20387;-71
2023/05/16 06:34:55;;;;;;;35.92;24.33;;;;;;;;;;5038482;28;20028;-70
2023/05/16 06:37:40;;;;;;;34.05;24.27;;;;;;;;;;5055199;28;20076;-70
2023/05/16 06:40:25;;;;;;;32.90;24.60;;;;;;;;;;5044716;28;20056;-67
2023/05/16 06:43:11;;;;;;;40.65;27.50;;;;;;;;;;5042803;28;20032;-69
2023/05/16 06:45:56;;;;;;;35.08;25.50;;;;;;;;;;5042718;28;20079;-70
2023/05/16 06:48:41;;;;;;;29.83;22.10;;;;;;;;;;5047019;28;20029;-69
2023/05/16 06:51:26;;;;;;;27.63;20.15;;;;;;;;;;5045919;28;20522;-68
2023/05/16 06:54:11;;;;;;;38.35;23.63;;;;;;;;;;5045778;28;20029;-68
2023/05/16 06:56:57;;;;;;;32.42;22.85;;;;;;;;;;5043710;28;20123;-67
2023/05/16 06:59:42;;;;;;;34.33;22.50;;;;;;;;;;5045532;28;20056;-67
2023/05/16 07:02:27;;;;;;;42.45;24.95;;;;;;;;;;5046823;28;20129;-67
2023/05/16 07:05:12;;;;;;;31.38;21.35;;;;;;;;;;5046789;28;20027;-75
2023/05/16 07:07:58;;;;;;;32.90;22.55;;;;;;;;;;5042355;28;20422;-77
2023/05/16 07:10:43;;;;;;;31.98;22.83;;;;;;;;;;5049662;28;20016;-78
2023/05/16 07:13:29;;;;;;;23.90;17.85;;;;;;;;;;5032071;28;20123;-77
2023/05/16 07:16:14;;;;;;;29.50;20.98;;;;;;;;;;5045967;28;20039;-76
2023/05/16 07:18:59;;;;;;;26.70;20.13;;;;;;;;;;5047067;28;20036;-74
2023/05/16 07:21:45;;;;;;;30.38;20.20;;;;;;;;;;5043800;28;20116;-78
2023/05/16 07:24:30;;;;;;;26.77;19.27;;;;;;;;;;5044346;28;20131;-81
2023/05/16 07:27:15;;;;;;;23.65;17.33;;;;;;;;;;5049528;28;20029;-74
2023/05/16 07:30:01;;;;;;;25.77;17.27;;;;;;;;;;5048494;28;20032;-81
2023/05/16 07:32:46;;;;;;;24.58;16.92;;;;;;;;;;5047942;28;20494;-78
2023/05/16 07:35:31;;;;;;;23.23;16.65;;;;;;;;;;5043759;28;20482;-74
2023/05/16 07:38:17;;;;;;;24.88;16.35;;;;;;;;;;5058926;28;20487;-79
2023/05/16 07:41:02;;;;;;;24.75;14.80;;;;;;;;;;5025866;28;20052;-78
2023/05/16 07:43:47;;;;;;;21.35;14.40;;;;;;;;;;5027018;28;20224;-66
2023/05/16 07:46:32;;;;;;;19.63;13.07;;;;;;;;;;5012349;28;20083;-73
2023/05/16 07:49:18;;;;;;;17.75;12.27;;;;;;;;;;5023469;28;20542;-76
2023/05/16 07:52:03;;;;;;;12.05;8.82;;;;;;;;;;5021679;28;20037;-75
2023/05/16 07:54:48;;;;;;;16.67;9.57;;;;;;;;;;5030367;28;20045;-76
2023/05/16 07:57:33;;;;;;;15.35;9.88;;;;;;;;;;5024789;28;20488;-75
2023/05/16 08:00:19;;;;;;;16.63;10.70;;;;;;;;;;5013291;28;20029;-67
2023/05/16 08:03:05;;;;;;;15.98;10.80;;;;;;;;;;5013045;28;20635;-70
2023/05/16 08:05:50;;;;;;;18.05;12.85;;;;;;;;;;5024129;28;20036;-71
2023/05/16 08:08:36;;;;;;;21.55;13.68;;;;;;;;;;5026201;28;20445;-68
2023/05/16 08:11:21;;;;;;;19.00;12.07;;;;;;;;;;5038831;28;20116;-66
2023/05/16 08:14:06;;;;;;;16.42;10.60;;;;;;;;;;5011617;28;21713;-67
2023/05/16 08:16:52;;;;;;;15.65;10.50;;;;;;;;;;5026262;28;20069;-68
2023/05/16 08:19:37;;;;;;;13.13;9.52;;;;;;;;;;5023175;28;20075;-69
2023/05/16 08:22:22;;;;;;;19.92;9.77;;;;;;;;;;5022894;28;20029;-70
2023/05/16 08:25:07;;;;;;;12.85;9.82;;;;;;;;;;5038574;28;20025;-70
2023/05/16 08:27:53;;;;;;;13.93;10.70;;;;;;;;;;5024673;28;20040;-69
2023/05/16 08:30:38;;;;;;;15.18;11.73;;;;;;;;;;5025433;28;20021;-69
2023/05/16 08:33:23;;;;;;;13.88;9.77;;;;;;;;;;5024381;28;20022;-70
2023/05/16 08:36:09;;;;;;;14.43;11.13;;;;;;;;;;5027649;28;20444;-70
2023/05/16 08:38:54;;;;;;;15.50;10.85;;;;;;;;;;5020144;28;20047;-69
2023/05/16 08:41:39;;;;;;;17.13;11.55;;;;;;;;;;5042280;28;20542;-82
2023/05/16 08:44:25;;;;;;;17.55;12.68;;;;;;;;;;5049081;28;20101;-80
2023/05/16 08:47:12;;;;;;;16.98;11.75;;;;;;;;;;5053200;28;20107;-74
2023/05/16 08:49:59;;;;;;;17.35;12.40;;;;;;;;;;5041150;28;20058;-81
2023/05/16 08:52:46;;;;;;;17.15;12.15;;;;;;;;;;5042896;28;20036;-78
2023/05/16 08:55:31;;;;;;;16.50;12.00;;;;;;;;;;5052856;28;20039;-77
2023/05/16 09:00:53;;;;;;;20.50;13.98;;;;;;;;;;5065789;28;20036;-81
2023/05/16 09:03:39;;;;;;;17.48;12.27;;;;;;;;;;5049788;28;20807;-79
2023/05/16 09:06:25;;;;;;;18.58;12.38;;;;;;;;;;5053374;28;20517;-75
2023/05/16 09:09:11;;;;;;;21.40;14.63;;;;;;;;;;5053410;28;20048;-73
2023/05/16 09:11:57;;;;;;;18.30;13.07;;;;;;;;;;5051281;28;20021;-78
2023/05/16 09:14:42;;;;;;;15.50;12.10;;;;;;;;;;5038574;28;20418;-70
2023/05/16 09:17:33;;;;;;;18.75;13.15;;;;;;;;;;5055531;28;20466;-70
2023/05/16 09:20:19;;;;;;;18.38;13.50;;;;;;;;;;5051874;28;20425;-71
2023/05/16 09:23:04;;;;;;;19.02;13.85;;;;;;;;;;5045267;28;20032;-68
2023/05/16 09:25:52;;;;;;;20.17;15.32;;;;;;;;;;5045465;28;20028;-71
2023/05/16 09:28:38;;;;;;;25.27;14.80;;;;;;;;;;5030484;28;20438;-69
2023/05/16 09:31:30;;;;;;;23.15;16.52;;;;;;;;;;5048289;28;20024;-69
2023/05/16 09:34:15;;;;;;;23.52;16.35;;;;;;;;;;5044967;28;20349;-72
2023/05/16 09:37:01;;;;;;;22.98;16.40;;;;;;;;;;5045001;28;20119;-67
2023/05/16 09:39:47;;;;;;;24.67;17.27;;;;;;;;;;5045761;28;20040;-67
2023/05/16 09:42:32;;;;;;;23.50;17.35;;;;;;;;;;5045649;28;20031;-67
2023/05/16 09:45:18;;;;;;;24.75;17.25;;;;;;;;;;5048001;28;20205;-67
2023/05/16 09:48:07;;;;;;;25.77;17.30;;;;;;;;;;5038424;28;20475;-70
2023/05/16 09:50:53;;;;;;;26.88;17.25;;;;;;;;;;5030902;28;20029;-68
2023/05/16 09:53:38;;;;;;;22.77;16.35;;;;;;;;;;5025464;28;20052;-68
2023/05/16 09:56:23;;;;;;;24.05;16.90;;;;;;;;;;5030120;28;20041;-68
2023/05/16 09:59:10;;;;;;;22.50;16.38;;;;;;;;;;5019843;28;20045;-68
2023/05/16 10:01:59;;;;;;;26.02;17.52;;;;;;;;;;5032414;28;20516;-69
2023/05/16 10:04:44;;;;;;;25.35;16.70;;;;;;;;;;5034719;28;20053;-69
2023/05/16 10:07:31;;;;;;;25.83;15.93;;;;;;;;;;5030985;28;20107;-68
2023/05/16 10:10:17;;;;;;;24.00;15.88;;;;;;;;;;5022550;28;20021;-75
2023/05/16 10:13:04;;;;;;;22.95;16.23;;;;;;;;;;5020103;28;20185;-68
2023/05/16 10:15:50;;;;;;;26.42;16.63;;;;;;;;;;5035894;28;20033;-70
2023/05/16 10:18:36;;;;;;;24.15;16.17;;;;;;;;;;5027778;28;20508;-70
2023/05/16 10:21:22;;;;;;;24.50;16.50;;;;;;;;;;5031024;28;20037;-70
2023/05/16 10:24:10;;;;;;;23.50;16.70;;;;;;;;;;5040043;28;20032;-70
2023/05/16 10:26:55;;;;;;;23.08;16.60;;;;;;;;;;5027459;28;20623;-69
2023/05/16 10:29:41;;;;;;;21.65;14.65;;;;;;;;;;5034369;28;20036;-67
2023/05/16 10:32:26;;;;;;;22.17;14.52;;;;;;;;;;5017675;28;20057;-75
2023/05/16 10:35:11;;;;;;;21.42;13.65;;;;;;;;;;5033642;28;20435;-72
2023/05/16 10:37:57;;;;;;;20.60;14.27;;;;;;;;;;5033418;28;20621;-74
2023/05/16 10:40:43;;;;;;;19.02;13.70;;;;;;;;;;5034398;28;20064;-76
2023/05/16 10:43:29;;;;;;;23.92;14.27;;;;;;;;;;5030765;28;20149;-74
2023/05/16 10:46:14;;;;;;;20.17;14.27;;;;;;;;;;5032774;28;20037;-68
2023/05/16 10:49:18;;;;;;;22.98;15.07;;;;;;;;;;5030688;28;20078;-71
2023/05/16 10:52:10;;;;;;;20.08;13.52;;;;;;;;;;5043265;28;20480;-69
2023/05/16 10:54:56;;;;;;;20.23;13.77;;;;;;;;;;5033325;28;20498;-71
2023/05/16 10:57:43;;;;;;;24.75;15.35;;;;;;;;;;5032376;28;20033;-68
2023/05/16 11:00:29;;;;;;;19.27;13.75;;;;;;;;;;5018188;28;20048;-69
2023/05/16 11:03:27;;;;;;;20.05;13.30;;;;;;;;;;5034441;28;20057;-67
2023/05/16 11:06:12;;;;;;;16.98;11.75;;;;;;;;;;5030584;28;20162;-67
2023/05/16 11:09:10;;;;;;;18.70;12.27;;;;;;;;;;5025672;28;20043;-74
2023/05/16 11:11:57;;;;;;;19.52;12.40;;;;;;;;;;5046068;28;20017;-72
2023/05/16 11:14:43;;;;;;;19.52;12.98;;;;;;;;;;5032536;28;20037;-78
2023/05/16 11:17:37;;;;;;;17.50;11.52;;;;;;;;;;5032847;28;20052;-74
2023/05/16 11:20:28;;;;;;;18.42;12.32;;;;;;;;;;5018016;28;20418;-72
2023/05/16 11:23:23;;;;;;;15.30;10.50;;;;;;;;;;5030926;28;20488;-69
2023/05/16 11:26:09;;;;;;;17.38;12.00;;;;;;;;;;5030313;28;20365;-82
2023/05/16 11:28:54;;;;;;;18.75;11.40;;;;;;;;;;5031439;28;20094;-79
2023/05/16 11:31:40;;;;;;;20.45;13.57;;;;;;;;;;5027111;28;20021;-77
2023/05/16 11:34:25;;;;;;;18.55;10.15;;;;;;;;;;5020128;28;20121;-75
2023/05/16 11:37:11;;;;;;;18.75;10.98;;;;;;;;;;5030267;28;20396;-72
2023/05/16 11:40:00;;;;;;;16.45;11.15;;;;;;;;;;5034107;28;20028;-87
2023/05/16 11:42:48;;;;;;;14.10;9.57;;;;;;;;;;5031604;28;20099;-70
2023/05/16 11:45:34;;;;;;;15.75;10.57;;;;;;;;;;5032151;28;20048;-73
2023/05/16 11:48:22;;;;;;;15.43;9.77;;;;;;;;;;5019251;28;20616;-75
2023/05/16 11:51:08;;;;;;;16.98;10.05;;;;;;;;;;5032285;28;20091;-71
2023/05/16 11:53:53;;;;;;;13.65;7.72;;;;;;;;;;5018465;28;20492;-76
2023/05/16 11:56:39;;;;;;;11.15;7.68;;;;;;;;;;5027195;28;20795;-78
2023/05/16 11:59:25;;;;;;;13.30;8.05;;;;;;;;;;5030126;28;20053;-76
2023/05/16 12:02:11;;;;;;;11.07;7.13;;;;;;;;;;5031977;28;20063;-75
2023/05/16 12:04:56;;;;;;;11.73;7.72;;;;;;;;;;5014040;28;20414;-67
2023/05/16 12:07:45;;;;;;;10.68;7.32;;;;;;;;;;5016266;28;20530;-68
2023/05/16 12:10:32;;;;;;;12.90;8.27;;;;;;;;;;5023880;28;20068;-71
2023/05/16 12:13:19;;;;;;;10.55;7.03;;;;;;;;;;5023517;28;20043;-68
2023/05/16 12:16:04;;;;;;;12.80;8.15;;;;;;;;;;5019778;28;20443;-68
2023/05/16 12:18:50;;;;;;;12.18;7.60;;;;;;;;;;5035745;28;20021;-70
2023/05/16 12:21:36;;;;;;;11.73;7.82;;;;;;;;;;5022288;28;20194;-69
2023/05/16 12:24:28;;;;;;;10.63;7.18;;;;;;;;;;5032166;28;20025;-70
2023/05/16 12:27:20;;;;;;;10.43;7.28;;;;;;;;;;5020818;28;20243;-68
2023/05/16 12:30:07;;;;;;;11.63;7.90;;;;;;;;;;5035682;28;20032;-66
2023/05/16 12:32:58;;;;;;;12.38;7.47;;;;;;;;;;5035514;28;20647;-66
2023/05/16 12:35:45;;;;;;;11.52;6.82;;;;;;;;;;5030801;28;20032;-74
2023/05/16 12:38:31;;;;;;;9.38;6.45;;;;;;;;;;5047960;28;20364;-80
2023/05/16 12:41:20;;;;;;;9.88;6.70;;;;;;;;;;5034841;22;20053;-69
2023/05/16 12:44:06;;;;;;;10.23;5.57;;;;;;;;;;5008468;28;20057;-68
2023/05/16 12:46:53;;;;;;;8.68;5.55;;;;;;;;;;5009651;28;20030;-69
2023/05/16 12:49:45;;;;;;;8.75;4.28;;;;;;;;;;5002870;28;20038;-71
2023/05/16 12:52:30;;;;;;;7.22;4.90;;;;;;;;;;4995639;28;20030;-69
2023/05/16 12:55:20;;;;;;;8.43;5.15;;;;;;;;;;4996866;28;20080;-76
2023/05/16 12:58:07;;;;;;;11.05;4.72;;;;;;;;;;4994969;28;20476;-79
2023/05/16 13:00:52;;;;;;;6.82;4.50;;;;;;;;;;4995588;28;20520;-78
2023/05/16 13:03:38;;;;;;;5.95;4.25;;;;;;;;;;4996481;28;20026;-79
2023/05/16 13:06:23;;;;;;;6.30;4.30;;;;;;;;;;4994158;28;20384;-75
2023/05/16 13:09:10;;;;;;;6.25;3.70;;;;;;;;;;4982152;28;20630;-74
2023/05/16 13:11:55;;;;;;;3.80;3.30;;;;;;;;;;5001456;28;20030;-77
2023/05/16 13:14:41;;;;;;;4.65;3.20;;;;;;;;;;4997543;28;20041;-69
2023/05/16 13:17:29;;;;;;;5.82;3.80;;;;;;;;;;4995764;28;20090;-72
2023/05/16 13:20:14;;;;;;;5.22;3.22;;;;;;;;;;4979907;28;20040;-70
2023/05/16 13:22:59;;;;;;;7.18;4.07;;;;;;;;;;4982791;28;20034;-70
2023/05/16 13:25:45;;;;;;;8.55;3.72;;;;;;;;;;4996730;28;20025;-70
2023/05/16 13:28:34;;;;;;;5.30;3.47;;;;;;;;;;4996181;28;20042;-68
2023/05/16 13:31:20;;;;;;;4.85;3.10;;;;;;;;;;4994739;28;20022;-72
2023/05/16 13:34:05;;;;;;;4.40;3.42;;;;;;;;;;4994940;28;20409;-74
2023/05/16 13:36:51;;;;;;;5.55;2.88;;;;;;;;;;4994901;28;20117;-64
2023/05/16 13:39:36;;;;;;;5.63;2.63;;;;;;;;;;4994203;28;20041;-66
2023/05/16 13:42:21;;;;;;;4.28;3.08;;;;;;;;;;4996080;28;20041;-67
2023/05/16 13:45:07;;;;;;;5.30;2.40;;;;;;;;;;4995703;28;20516;-64
2023/05/16 13:47:52;;;;;;;3.65;2.38;;;;;;;;;;4980420;28;20039;-65
2023/05/16 13:50:38;;;;;;;4.38;2.78;;;;;;;;;;4990257;28;20040;-69
2023/05/16 13:53:23;;;;;;;3.30;2.03;;;;;;;;;;4995929;28;20117;-67
2023/05/16 13:56:08;;;;;;;4.28;2.55;;;;;;;;;;4994840;28;20036;-66
2023/05/16 13:58:54;;;;;;;5.25;2.22;;;;;;;;;;4994212;28;20034;-65
2023/05/16 14:01:39;;;;;;;3.63;2.25;;;;;;;;;;4994372;28;20022;-66
2023/05/16 14:04:25;;;;;;;3.38;1.95;;;;;;;;;;4995705;28;20285;-65
2023/05/16 14:07:10;;;;;;;4.53;2.10;;;;;;;;;;4993227;28;20190;-69
2023/05/16 14:09:55;;;;;;;6.50;2.47;;;;;;;;;;4997036;28;20049;-71
2023/05/16 14:12:41;;;;;;;3.10;2.22;;;;;;;;;;4994764;28;20048;-66
2023/05/16 14:15:29;;;;;;;4.38;2.08;;;;;;;;;;4994681;28;20120;-68
2023/05/16 14:18:14;;;;;;;2.95;2.28;;;;;;;;;;4992834;28;20136;-67
2023/05/16 14:21:01;;;;;;;4.28;2.35;;;;;;;;;;4993176;28;20036;-66
2023/05/16 14:23:46;;;;;;;4.47;2.17;;;;;;;;;;4980710;28;20203;-68
2023/05/16 14:26:31;;;;;;;2.92;2.22;;;;;;;;;;4994360;28;20041;-72
2023/05/16 14:29:16;;;;;;;3.20;2.40;;;;;;;;;;4997024;28;20022;-68
2023/05/16 14:32:02;;;;;;;6.25;2.20;;;;;;;;;;4994376;28;20025;-76
2023/05/16 14:34:47;;;;;;;3.35;2.38;;;;;;;;;;4991808;28;20444;-78
2023/05/16 14:37:32;;;;;;;4.68;2.40;;;;;;;;;;4989149;28;20034;-74
2023/05/16 14:40:17;;;;;;;2.95;2.00;;;;;;;;;;4994060;28;20041;-76
2023/05/16 14:43:03;;;;;;;5.82;2.30;;;;;;;;;;4995502;28;20030;-79
2023/05/16 14:45:48;;;;;;;3.88;2.13;;;;;;;;;;4994145;28;20052;-72
2023/05/16 14:48:33;;;;;;;3.40;2.13;;;;;;;;;;4993168;28;20128;-80
2023/05/16 14:51:19;;;;;;;3.13;2.03;;;;;;;;;;4992473;28;20032;-82
2023/05/16 14:54:04;;;;;;;4.85;1.98;;;;;;;;;;4993441;28;20366;-73
2023/05/16 14:56:50;;;;;;;6.68;2.58;;;;;;;;;;4992217;28;20038;-73
2023/05/16 14:59:38;;;;;;;3.13;1.77;;;;;;;;;;4991626;28;20025;-73
2023/05/16 15:02:23;;;;;;;2.47;1.73;;;;;;;;;;4995338;28;20108;-74
2023/05/16 15:05:08;;;;;;;2.85;1.63;;;;;;;;;;4988160;28;20029;-69
2023/05/16 15:07:53;;;;;;;2.67;1.80;;;;;;;;;;4990313;28;21823;-68
2023/05/16 15:10:39;;;;;;;4.82;1.48;;;;;;;;;;4997801;28;20022;-70
2023/05/16 15:13:24;;;;;;;4.22;1.88;;;;;;;;;;4984213;28;20199;-69
2023/05/16 15:16:09;;;;;;;3.90;1.67;;;;;;;;;;4986217;28;20080;-71
2023/05/16 15:18:55;;;;;;;2.65;1.52;;;;;;;;;;4992974;28;20065;-70
2023/05/16 15:21:41;;;;;;;6.05;1.73;;;;;;;;;;4991254;28;20073;-68
2023/05/16 15:24:26;;;;;;;2.95;1.70;;;;;;;;;;4999513;28;20030;-66
2023/05/16 15:27:12;;;;;;;1.35;1.20;;;;;;;;;;4989773;28;20044;-73
2023/05/16 15:29:57;;;;;;;3.47;1.52;;;;;;;;;;4986966;28;20052;-71
2023/05/16 15:32:43;;;;;;;2.60;1.77;;;;;;;;;;4990406;28;20033;-72
2023/05/16 15:35:28;;;;;;;3.05;1.40;;;;;;;;;;4992393;28;20062;-71
2023/05/16 15:38:14;;;;;;;5.47;1.77;;;;;;;;;;4994434;28;20038;-70
2023/05/16 15:40:59;;;;;;;7.10;2.55;;;;;;;;;;4996048;28;20144;-71
2023/05/16 15:43:45;;;;;;;5.53;1.80;;;;;;;;;;4989812;28;20436;-73
2023/05/16 15:46:31;;;;;;;3.20;1.80;;;;;;;;;;4995022;28;20526;-73
2023/05/16 15:49:16;;;;;;;4.22;1.70;;;;;;;;;;4991242;28;20104;-74
2023/05/16 15:52:02;;;;;;;3.97;1.83;;;;;;;;;;4991163;28;20300;-73
2023/05/16 15:54:47;;;;;;;6.55;2.25;;;;;;;;;;4989533;28;20028;-75
2023/05/16 15:57:33;;;;;;;5.28;1.85;;;;;;;;;;4996126;28;20100;-74
2023/05/16 16:00:18;;;;;;;12.90;3.67;;;;;;;;;;4975066;28;20464;-74
2023/05/16 16:03:03;;;;;;;5.07;2.13;;;;;;;;;;4991907;28;20559;-68
2023/05/16 16:05:49;;;;;;;6.47;2.10;;;;;;;;;;4993303;28;20079;-66
2023/05/16 16:08:34;;;;;;;4.85;2.13;;;;;;;;;;4996581;28;20042;-65
2023/05/16 16:11:22;;;;;;;8.38;2.03;;;;;;;;;;4993528;28;20362;-65
2023/05/16 16:14:09;;;;;;;5.85;2.30;;;;;;;;;;4988424;28;20029;-68
2023/05/16 16:16:54;;;;;;;5.63;2.17;;;;;;;;;;4978933;28;20103;-66
2023/05/16 16:19:40;;;;;;;4.88;2.20;;;;;;;;;;4991407;28;20477;-72